sensor_id;sensor_type;location;lat;lon;timestamp;pressure;altitude;pressure_sealevel;temperature;humidity
19112;BME280;9688;51.906;8.376;2023-04-28T00:02:02;100647.94;;;10.94;49.56
19112;BME280;9688;51.906;8.376;2023-04-28T00:04:48;100654.03;;;10.97;48.59
19112;BME280;9688;51.906;8.376;2023-04-28T00:07:33;100647.78;;;10.99;49.36
19112;BME280;9688;51.906;8.376;2023-04-28T00:10:20;100639.91;;;10.98;49.72
19112;BME280;9688;51.906;8.376;2023-04-28T00:13:06;100639.03;;;10.97;50.04
19112;BME280;9688;51.906;8.376;2023-04-28T00:15:52;100633.69;;;10.99;50.33
19112;BME280;9688;51.906;8.376;2023-04-28T00:18:38;100617.81;;;10.99;49.28
19112;BME280;9688;51.906;8.376;2023-04-28T00:21:24;100610.81;;;10.98;50.44
19112;BME280;9688;51.906;8.376;2023-04-28T00:24:11;100616.03;;;10.99;49.39
19112;BME280;9688;51.906;8.376;2023-04-28T00:26:57;100622.38;;;10.95;49.62
19112;BME280;9688;51.906;8.376;2023-04-28T00:29:42;100603.09;;;10.91;50.79
19112;BME280;9688;51.906;8.376;2023-04-28T00:32:29;100604.00;;;10.92;50.04
19112;BME280;9688;51.906;8.376;2023-04-28T00:35:16;100602.19;;;10.92;50.21
19112;BME280;9688;51.906;8.376;2023-04-28T00:38:02;100597.78;;;10.93;50.38
19112;BME280;9688;51.906;8.376;2023-04-28T00:40:47;100598.69;;;10.92;50.78
19112;BME280;9688;51.906;8.376;2023-04-28T00:43:43;100595.13;;;10.93;50.62
19112;BME280;9688;51.906;8.376;2023-04-28T00:46:29;100587.09;;;10.94;50.58
19112;BME280;9688;51.906;8.376;2023-04-28T00:49:16;100585.41;;;10.93;51.14
19112;BME280;9688;51.906;8.376;2023-04-28T00:52:04;100580.09;;;10.93;51.44
19112;BME280;9688;51.906;8.376;2023-04-28T00:54:50;100586.22;;;10.96;50.57
19112;BME280;9688;51.906;8.376;2023-04-28T00:57:35;100587.00;;;10.98;51.15
19112;BME280;9688;51.906;8.376;2023-04-28T01:00:21;100583.47;;;10.97;51.03
19112;BME280;9688;51.906;8.376;2023-04-28T01:03:07;100576.47;;;10.96;51.63
19112;BME280;9688;51.906;8.376;2023-04-28T01:05:52;100579.06;;;10.98;50.89
19112;BME280;9688;51.906;8.376;2023-04-28T01:08:40;100579.00;;;10.99;51.66
19112;BME280;9688;51.906;8.376;2023-04-28T01:11:25;100568.41;;;10.99;52.12
19112;BME280;9688;51.906;8.376;2023-04-28T01:14:10;100571.06;;;10.99;51.17
19112;BME280;9688;51.906;8.376;2023-04-28T01:16:56;100567.56;;;10.99;51.53
19112;BME280;9688;51.906;8.376;2023-04-28T01:19:41;100556.97;;;10.99;52.26
19112;BME280;9688;51.906;8.376;2023-04-28T01:22:31;100550.75;;;11.00;52.05
19112;BME280;9688;51.906;8.376;2023-04-28T01:25:17;100548.19;;;10.98;52.69
19112;BME280;9688;51.906;8.376;2023-04-28T01:28:03;100542.81;;;11.00;51.51
19112;BME280;9688;51.906;8.376;2023-04-28T01:30:48;100550.75;;;11.00;52.50
19112;BME280;9688;51.906;8.376;2023-04-28T01:33:34;100548.91;;;11.02;52.52
19112;BME280;9688;51.906;8.376;2023-04-28T01:36:19;100546.28;;;11.02;52.22
19112;BME280;9688;51.906;8.376;2023-04-28T01:39:07;100538.34;;;11.02;52.80
19112;BME280;9688;51.906;8.376;2023-04-28T01:41:54;100533.00;;;11.03;52.26
19112;BME280;9688;51.906;8.376;2023-04-28T01:44:39;100540.03;;;11.03;52.95
19112;BME280;9688;51.906;8.376;2023-04-28T01:47:25;100534.84;;;11.01;52.38
19112;BME280;9688;51.906;8.376;2023-04-28T01:50:11;100519.00;;;11.00;52.15
19112;BME280;9688;51.906;8.376;2023-04-28T01:52:58;100521.75;;;10.98;52.60
19112;BME280;9688;51.906;8.376;2023-04-28T01:55:44;100526.19;;;10.98;52.90
19112;BME280;9688;51.906;8.376;2023-04-28T01:58:31;100518.25;;;10.98;53.38
19112;BME280;9688;51.906;8.376;2023-04-28T02:01:16;100511.88;;;11.02;53.12
19112;BME280;9688;51.906;8.376;2023-04-28T02:04:02;100507.44;;;11.02;53.11
19112;BME280;9688;51.906;8.376;2023-04-28T02:06:47;100502.09;;;11.04;53.33
19112;BME280;9688;51.906;8.376;2023-04-28T02:09:33;100498.53;;;11.05;53.65
19112;BME280;9688;51.906;8.376;2023-04-28T02:12:19;100495.88;;;11.05;53.94
19112;BME280;9688;51.906;8.376;2023-04-28T02:15:07;100497.66;;;11.04;53.42
19112;BME280;9688;51.906;8.376;2023-04-28T02:17:53;100502.03;;;11.05;54.53
19112;BME280;9688;51.906;8.376;2023-04-28T02:20:39;100495.97;;;11.03;54.11
19112;BME280;9688;51.906;8.376;2023-04-28T02:23:25;100493.19;;;11.06;54.58
19112;BME280;9688;51.906;8.376;2023-04-28T02:26:10;100494.75;;;11.10;53.44
19112;BME280;9688;51.906;8.376;2023-04-28T02:28:56;100497.22;;;11.15;54.56
19112;BME280;9688;51.906;8.376;2023-04-28T02:31:42;100489.19;;;11.16;54.11
19112;BME280;9688;51.906;8.376;2023-04-28T02:34:28;100485.84;;;11.13;54.73
19112;BME280;9688;51.906;8.376;2023-04-28T02:37:14;100479.59;;;11.14;55.39
19112;BME280;9688;51.906;8.376;2023-04-28T02:40:00;100474.31;;;11.14;54.91
19112;BME280;9688;51.906;8.376;2023-04-28T02:42:48;100476.09;;;11.13;55.06
19112;BME280;9688;51.906;8.376;2023-04-28T02:45:34;100477.72;;;11.18;54.53
19112;BME280;9688;51.906;8.376;2023-04-28T02:48:21;100462.75;;;11.16;54.06
19112;BME280;9688;51.906;8.376;2023-04-28T02:51:07;100462.69;;;11.18;55.46
19112;BME280;9688;51.906;8.376;2023-04-28T02:53:52;100453.81;;;11.19;55.36
19112;BME280;9688;51.906;8.376;2023-04-28T02:56:38;100453.75;;;11.21;54.97
19112;BME280;9688;51.906;8.376;2023-04-28T02:59:24;100453.81;;;11.19;54.94
19112;BME280;9688;51.906;8.376;2023-04-28T03:02:10;100446.81;;;11.18;54.83
19112;BME280;9688;51.906;8.376;2023-04-28T03:04:57;100443.31;;;11.18;55.19
19112;BME280;9688;51.906;8.376;2023-04-28T03:07:43;100444.88;;;11.22;55.17
19112;BME280;9688;51.906;8.376;2023-04-28T03:10:28;100450.94;;;11.25;55.66
19112;BME280;9688;51.906;8.376;2023-04-28T03:13:15;100443.84;;;11.26;54.91
19112;BME280;9688;51.906;8.376;2023-04-28T03:16:01;100444.56;;;11.29;55.83
19112;BME280;9688;51.906;8.376;2023-04-28T03:18:46;100445.34;;;11.31;55.38
19112;BME280;9688;51.906;8.376;2023-04-28T03:21:33;100448.13;;;11.28;55.10
19112;BME280;9688;51.906;8.376;2023-04-28T03:24:19;100446.53;;;11.24;55.73
19112;BME280;9688;51.906;8.376;2023-04-28T03:27:05;100445.69;;;11.24;56.08
19112;BME280;9688;51.906;8.376;2023-04-28T03:29:50;100439.41;;;11.26;56.22
19112;BME280;9688;51.906;8.376;2023-04-28T03:32:36;100432.16;;;11.30;56.49
19112;BME280;9688;51.906;8.376;2023-04-28T03:35:22;100430.47;;;11.29;56.21
19112;BME280;9688;51.906;8.376;2023-04-28T03:38:08;100418.22;;;11.26;56.52
19112;BME280;9688;51.906;8.376;2023-04-28T03:40:55;100418.28;;;11.25;56.73
19112;BME280;9688;51.906;8.376;2023-04-28T03:43:40;100422.44;;;11.30;56.46
19112;BME280;9688;51.906;8.376;2023-04-28T03:46:26;100422.34;;;11.33;55.74
19112;BME280;9688;51.906;8.376;2023-04-28T03:49:12;100427.34;;;11.39;57.01
19112;BME280;9688;51.906;8.376;2023-04-28T03:51:57;100417.59;;;11.40;56.54
19112;BME280;9688;51.906;8.376;2023-04-28T03:54:44;100419.41;;;11.39;57.18
19112;BME280;9688;51.906;8.376;2023-04-28T03:57:30;100419.31;;;11.41;56.51
19112;BME280;9688;51.906;8.376;2023-04-28T04:00:16;100415.81;;;11.41;56.77
19112;BME280;9688;51.906;8.376;2023-04-28T04:03:02;100415.69;;;11.44;56.49
19112;BME280;9688;51.906;8.376;2023-04-28T04:05:47;100414.03;;;11.41;55.75
19112;BME280;9688;51.906;8.376;2023-04-28T04:08:33;100417.59;;;11.40;57.07
19112;BME280;9688;51.906;8.376;2023-04-28T04:11:20;100415.91;;;11.39;55.99
19112;BME280;9688;51.906;8.376;2023-04-28T04:14:06;100419.53;;;11.36;56.58
19112;BME280;9688;51.906;8.376;2023-04-28T04:16:51;100415.97;;;11.37;56.66
19112;BME280;9688;51.906;8.376;2023-04-28T04:19:38;100411.75;;;11.33;57.47
19112;BME280;9688;51.906;8.376;2023-04-28T04:22:24;100409.97;;;11.34;56.98
19112;BME280;9688;51.906;8.376;2023-04-28T04:25:10;100419.41;;;11.39;57.46
19112;BME280;9688;51.906;8.376;2023-04-28T04:27:57;100420.13;;;11.43;58.57
19112;BME280;9688;51.906;8.376;2023-04-28T04:30:43;100409.59;;;11.42;57.77
19112;BME280;9688;51.906;8.376;2023-04-28T04:33:29;100405.38;;;11.37;57.93
19112;BME280;9688;51.906;8.376;2023-04-28T04:36:14;100400.22;;;11.34;58.95
19112;BME280;9688;51.906;8.376;2023-04-28T04:39:00;100400.22;;;11.34;59.16
19112;BME280;9688;51.906;8.376;2023-04-28T04:41:45;100399.22;;;11.37;59.43
19112;BME280;9688;51.906;8.376;2023-04-28T04:44:32;100400.22;;;11.34;59.25
19112;BME280;9688;51.906;8.376;2023-04-28T04:47:18;100400.94;;;11.38;59.17
19112;BME280;9688;51.906;8.376;2023-04-28T04:50:07;100407.03;;;11.40;59.49
19112;BME280;9688;51.906;8.376;2023-04-28T04:52:53;100400.72;;;11.43;59.35
19112;BME280;9688;51.906;8.376;2023-04-28T04:55:40;100400.66;;;11.44;59.62
19112;BME280;9688;51.906;8.376;2023-04-28T04:58:26;100396.44;;;11.40;60.50
19112;BME280;9688;51.906;8.376;2023-04-28T05:01:13;100396.34;;;11.42;60.08
19112;BME280;9688;51.906;8.376;2023-04-28T05:03:59;100389.06;;;11.47;60.31
19112;BME280;9688;51.906;8.376;2023-04-28T05:06:44;100371.19;;;11.52;60.79
19112;BME280;9688;51.906;8.376;2023-04-28T05:09:30;100373.63;;;11.56;60.85
19112;BME280;9688;51.906;8.376;2023-04-28T05:12:16;100377.94;;;11.59;60.17
19112;BME280;9688;51.906;8.376;2023-04-28T05:15:02;100367.97;;;11.64;60.74
19112;BME280;9688;51.906;8.376;2023-04-28T05:17:49;100360.91;;;11.65;60.51
19112;BME280;9688;51.906;8.376;2023-04-28T05:20:35;100370.47;;;11.67;61.59
19112;BME280;9688;51.906;8.376;2023-04-28T05:23:21;100374.53;;;11.74;61.08
19112;BME280;9688;51.906;8.376;2023-04-28T05:26:08;100377.13;;;11.76;61.39
19112;BME280;9688;51.906;8.376;2023-04-28T05:28:53;100375.13;;;11.81;61.77
19112;BME280;9688;51.906;8.376;2023-04-28T05:31:39;100387.25;;;11.87;60.76
19112;BME280;9688;51.906;8.376;2023-04-28T05:34:27;100372.13;;;11.89;60.81
19112;BME280;9688;51.906;8.376;2023-04-28T05:37:13;100375.84;;;11.84;61.10
19112;BME280;9688;51.906;8.376;2023-04-28T05:39:58;100376.97;;;11.79;61.75
19112;BME280;9688;51.906;8.376;2023-04-28T05:42:44;100367.34;;;11.78;61.56
19112;BME280;9688;51.906;8.376;2023-04-28T05:45:30;100372.53;;;11.79;62.02
19112;BME280;9688;51.906;8.376;2023-04-28T05:48:17;100381.19;;;11.83;62.86
19112;BME280;9688;51.906;8.376;2023-04-28T05:51:05;100360.88;;;11.83;62.10
19112;BME280;9688;51.906;8.376;2023-04-28T05:53:53;100365.25;;;11.84;62.61
19112;BME280;9688;51.906;8.376;2023-04-28T05:56:39;100367.78;;;11.88;63.08
19112;BME280;9688;51.906;8.376;2023-04-28T05:59:27;100357.72;;;11.94;63.16
19112;BME280;9688;51.906;8.376;2023-04-28T06:02:18;100360.09;;;12.00;63.21
19112;BME280;9688;51.906;8.376;2023-04-28T06:05:04;100365.88;;;12.09;64.12
19112;BME280;9688;51.906;8.376;2023-04-28T06:07:51;100364.88;;;12.11;63.87
19112;BME280;9688;51.906;8.376;2023-04-28T06:10:39;100358.63;;;12.12;64.51
19112;BME280;9688;51.906;8.376;2023-04-28T06:13:24;100362.94;;;12.15;65.49
19112;BME280;9688;51.906;8.376;2023-04-28T06:16:10;100357.94;;;12.09;65.96
19112;BME280;9688;51.906;8.376;2023-04-28T06:18:56;100354.34;;;12.10;66.48
19112;BME280;9688;51.906;8.376;2023-04-28T06:21:44;100357.06;;;12.08;66.01
19112;BME280;9688;51.906;8.376;2023-04-28T06:24:32;100344.59;;;12.10;67.34
19112;BME280;9688;51.906;8.376;2023-04-28T06:27:18;100347.94;;;12.14;67.43
19112;BME280;9688;51.906;8.376;2023-04-28T06:30:07;100347.03;;;12.15;67.66
19112;BME280;9688;51.906;8.376;2023-04-28T06:32:53;100338.06;;;12.17;68.33
19112;BME280;9688;51.906;8.376;2023-04-28T06:35:40;100328.09;;;12.22;68.43
19112;BME280;9688;51.906;8.376;2023-04-28T06:38:27;100334.25;;;12.23;69.13
19112;BME280;9688;51.906;8.376;2023-04-28T06:41:14;100334.94;;;12.26;69.36
19112;BME280;9688;51.906;8.376;2023-04-28T06:44:00;100337.22;;;12.34;68.56
19112;BME280;9688;51.906;8.376;2023-04-28T06:46:45;100334.19;;;12.42;68.39
19112;BME280;9688;51.906;8.376;2023-04-28T06:49:31;100329.66;;;12.44;68.57
19112;BME280;9688;51.906;8.376;2023-04-28T06:52:17;100331.44;;;12.43;69.63
19112;BME280;9688;51.906;8.376;2023-04-28T06:55:06;100322.47;;;12.46;69.01
19112;BME280;9688;51.906;8.376;2023-04-28T06:57:59;100320.63;;;12.48;69.13
19112;BME280;9688;51.906;8.376;2023-04-28T07:00:47;100321.41;;;12.50;69.22
19112;BME280;9688;51.906;8.376;2023-04-28T07:03:33;100326.44;;;12.55;69.19
19112;BME280;9688;51.906;8.376;2023-04-28T07:06:20;100329.81;;;12.58;69.76
19112;BME280;9688;51.906;8.376;2023-04-28T07:09:08;100327.06;;;12.60;70.21
19112;BME280;9688;51.906;8.376;2023-04-28T07:11:54;100320.81;;;12.61;69.50
19112;BME280;9688;51.906;8.376;2023-04-28T07:14:42;100317.25;;;12.62;69.84
19112;BME280;9688;51.906;8.376;2023-04-28T07:17:28;100316.94;;;12.68;70.65
19112;BME280;9688;51.906;8.376;2023-04-28T07:20:16;100317.72;;;12.70;70.74
19112;BME280;9688;51.906;8.376;2023-04-28T07:23:05;100315.75;;;12.73;71.03
19112;BME280;9688;51.906;8.376;2023-04-28T07:25:51;100315.53;;;12.78;70.46
19112;BME280;9688;51.906;8.376;2023-04-28T07:28:37;100305.53;;;12.83;71.73
19112;BME280;9688;51.906;8.376;2023-04-28T07:31:24;100308.09;;;12.85;71.33
19112;BME280;9688;51.906;8.376;2023-04-28T07:34:10;100315.72;;;12.91;71.55
19112;BME280;9688;51.906;8.376;2023-04-28T07:36:56;100302.44;;;12.91;72.61
19112;BME280;9688;51.906;8.376;2023-04-28T07:39:43;100308.13;;;13.01;72.56
19112;BME280;9688;51.906;8.376;2023-04-28T07:42:31;100308.75;;;13.06;71.94
19112;BME280;9688;51.906;8.376;2023-04-28T07:45:16;100299.66;;;13.10;72.67
19112;BME280;9688;51.906;8.376;2023-04-28T07:48:04;100296.78;;;13.14;72.49
19112;BME280;9688;51.906;8.376;2023-04-28T07:50:53;100288.56;;;13.19;72.41
19112;BME280;9688;51.906;8.376;2023-04-28T07:53:43;100281.84;;;13.29;72.58
19112;BME280;9688;51.906;8.376;2023-04-28T07:56:33;100275.16;;;13.38;72.57
19112;BME280;9688;51.906;8.376;2023-04-28T07:59:19;100278.94;;;13.50;72.17
19112;BME280;9688;51.906;8.376;2023-04-28T08:02:04;100277.38;;;13.61;72.86
19112;BME280;9688;51.906;8.376;2023-04-28T08:04:53;100263.50;;;13.72;72.44
19112;BME280;9688;51.906;8.376;2023-04-28T08:07:39;100263.44;;;13.88;72.64
19112;BME280;9688;51.906;8.376;2023-04-28T08:10:25;100260.16;;;13.99;72.40
19112;BME280;9688;51.906;8.376;2023-04-28T08:13:12;100257.88;;;14.23;72.03
19112;BME280;9688;51.906;8.376;2023-04-28T08:15:59;100248.84;;;14.56;71.39
19112;BME280;9688;51.906;8.376;2023-04-28T08:18:45;100245.06;;;15.03;70.42
19112;BME280;9688;51.906;8.376;2023-04-28T08:21:33;100235.41;;;15.56;69.57
19112;BME280;9688;51.906;8.376;2023-04-28T08:24:22;100239.56;;;16.14;68.09
19112;BME280;9688;51.906;8.376;2023-04-28T08:27:10;100250.47;;;16.37;67.23
19112;BME280;9688;51.906;8.376;2023-04-28T08:29:57;100258.72;;;16.46;66.92
19112;BME280;9688;51.906;8.376;2023-04-28T08:32:43;100260.63;;;16.44;66.60
19112;BME280;9688;51.906;8.376;2023-04-28T08:35:29;100260.19;;;16.25;67.23
19112;BME280;9688;51.906;8.376;2023-04-28T08:38:18;100273.97;;;15.92;68.31
19112;BME280;9688;51.906;8.376;2023-04-28T08:41:08;100273.72;;;15.68;69.29
19112;BME280;9688;51.906;8.376;2023-04-28T08:43:57;100279.75;;;15.57;69.31
19112;BME280;9688;51.906;8.376;2023-04-28T08:46:44;100273.22;;;15.48;69.56
19112;BME280;9688;51.906;8.376;2023-04-28T08:49:33;100271.16;;;15.39;70.30
19112;BME280;9688;51.906;8.376;2023-04-28T08:52:20;100265.25;;;15.34;70.46
19112;BME280;9688;51.906;8.376;2023-04-28T08:55:12;100275.81;;;15.35;70.35
19112;BME280;9688;51.906;8.376;2023-04-28T08:58:01;100286.38;;;15.37;70.24
19112;BME280;9688;51.906;8.376;2023-04-28T09:00:48;100292.75;;;15.34;70.66
19112;BME280;9688;51.906;8.376;2023-04-28T09:03:38;100296.09;;;15.24;70.88
19112;BME280;9688;51.906;8.376;2023-04-28T09:06:25;100293.53;;;15.08;71.71
19112;BME280;9688;51.906;8.376;2023-04-28T09:09:22;100297.34;;;15.04;72.91
19112;BME280;9688;51.906;8.376;2023-04-28T09:12:11;100286.31;;;14.95;73.16
19112;BME280;9688;51.906;8.376;2023-04-28T09:14:57;100287.47;;;14.91;73.40
19112;BME280;9688;51.906;8.376;2023-04-28T09:17:52;100280.53;;;14.89;73.51
19112;BME280;9688;51.906;8.376;2023-04-28T09:20:39;100268.53;;;14.82;74.83
19112;BME280;9688;51.906;8.376;2023-04-28T09:23:25;100260.28;;;14.72;75.97
19112;BME280;9688;51.906;8.376;2023-04-28T09:26:11;100260.34;;;14.70;76.89
19112;BME280;9688;51.906;8.376;2023-04-28T09:29:11;100263.47;;;14.63;77.91
19112;BME280;9688;51.906;8.376;2023-04-28T09:32:12;100249.94;;;14.51;78.27
19112;BME280;9688;51.906;8.376;2023-04-28T09:35:00;100235.31;;;14.44;79.39
19112;BME280;9688;51.906;8.376;2023-04-28T09:37:46;100226.19;;;14.48;79.74
19112;BME280;9688;51.906;8.376;2023-04-28T09:40:53;100225.50;;;14.61;80.26
19112;BME280;9688;51.906;8.376;2023-04-28T09:43:45;100234.25;;;14.77;79.79
19112;BME280;9688;51.906;8.376;2023-04-28T09:46:33;100241.81;;;14.98;79.52
19112;BME280;9688;51.906;8.376;2023-04-28T09:49:20;100238.84;;;15.16;79.15
19112;BME280;9688;51.906;8.376;2023-04-28T09:52:12;100237.28;;;15.27;79.38
19112;BME280;9688;51.906;8.376;2023-04-28T09:55:01;100242.81;;;15.24;79.46
19112;BME280;9688;51.906;8.376;2023-04-28T09:57:52;100243.88;;;15.21;80.01
19112;BME280;9688;51.906;8.376;2023-04-28T10:00:40;100233.59;;;15.29;79.78
19112;BME280;9688;51.906;8.376;2023-04-28T10:03:29;100224.41;;;15.48;79.08
19112;BME280;9688;51.906;8.376;2023-04-28T10:06:15;100229.13;;;15.57;79.70
19112;BME280;9688;51.906;8.376;2023-04-28T10:09:05;100228.44;;;15.68;79.27
19112;BME280;9688;51.906;8.376;2023-04-28T10:11:53;100222.22;;;15.81;78.98
19112;BME280;9688;51.906;8.376;2023-04-28T10:14:40;100221.06;;;15.98;78.43
19112;BME280;9688;51.906;8.376;2023-04-28T10:17:27;100221.13;;;16.11;77.36
19112;BME280;9688;51.906;8.376;2023-04-28T10:20:16;100221.88;;;16.39;76.37
19112;BME280;9688;51.906;8.376;2023-04-28T10:23:20;100222.66;;;16.41;76.30
19112;BME280;9688;51.906;8.376;2023-04-28T10:26:14;100218.47;;;16.37;75.61
19112;BME280;9688;51.906;8.376;2023-04-28T10:29:02;100217.63;;;16.36;75.38
19112;BME280;9688;51.906;8.376;2023-04-28T10:32:19;100215.47;;;16.28;75.48
19112;BME280;9688;51.906;8.376;2023-04-28T10:35:40;100214.28;;;16.20;75.87
19112;BME280;9688;51.906;8.376;2023-04-28T10:38:26;100220.47;;;16.20;75.87
19112;BME280;9688;51.906;8.376;2023-04-28T10:41:31;100208.13;;;16.19;76.02
19112;BME280;9688;51.906;8.376;2023-04-28T10:44:41;100214.53;;;16.30;75.04
19112;BME280;9688;51.906;8.376;2023-04-28T10:47:27;100203.22;;;16.39;75.18
19112;BME280;9688;51.906;8.376;2023-04-28T10:50:20;100207.69;;;16.51;74.08
19112;BME280;9688;51.906;8.376;2023-04-28T10:53:07;100197.00;;;16.64;73.64
19112;BME280;9688;51.906;8.376;2023-04-28T10:56:04;100201.06;;;16.69;73.97
19112;BME280;9688;51.906;8.376;2023-04-28T10:58:50;100204.09;;;16.78;73.62
19112;BME280;9688;51.906;8.376;2023-04-28T11:01:37;100204.25;;;16.87;73.91
19112;BME280;9688;51.906;8.376;2023-04-28T11:04:23;100196.56;;;16.95;73.39
19112;BME280;9688;51.906;8.376;2023-04-28T11:07:10;100187.53;;;17.22;72.82
19112;BME280;9688;51.906;8.376;2023-04-28T11:09:59;100182.84;;;17.37;72.23
19112;BME280;9688;51.906;8.376;2023-04-28T11:16:04;100186.66;;;17.70;70.72
19112;BME280;9688;51.906;8.376;2023-04-28T11:18:56;100189.06;;;17.86;70.48
19112;BME280;9688;51.906;8.376;2023-04-28T11:21:46;100187.63;;;17.93;70.45
19112;BME280;9688;51.906;8.376;2023-04-28T11:24:35;100182.19;;;18.05;69.59
19112;BME280;9688;51.906;8.376;2023-04-28T11:27:26;100177.09;;;18.14;69.12
19112;BME280;9688;51.906;8.376;2023-04-28T11:30:19;100173.84;;;18.21;68.89
19112;BME280;9688;51.906;8.376;2023-04-28T11:33:07;100165.94;;;18.31;68.43
19112;BME280;9688;51.906;8.376;2023-04-28T11:35:57;100164.50;;;18.49;68.35
19112;BME280;9688;51.906;8.376;2023-04-28T11:38:46;100156.72;;;18.58;68.00
19112;BME280;9688;51.906;8.376;2023-04-28T11:41:34;100162.81;;;18.48;67.96
19112;BME280;9688;51.906;8.376;2023-04-28T11:44:26;100159.41;;;18.46;68.15
19112;BME280;9688;51.906;8.376;2023-04-28T11:47:12;100168.63;;;18.54;68.26
19112;BME280;9688;51.906;8.376;2023-04-28T11:49:58;100173.63;;;18.58;68.05
19112;BME280;9688;51.906;8.376;2023-04-28T11:52:48;100166.09;;;18.63;67.71
19112;BME280;9688;51.906;8.376;2023-04-28T11:55:37;100158.94;;;18.75;67.08
19112;BME280;9688;51.906;8.376;2023-04-28T11:58:26;100161.09;;;18.92;66.42
19112;BME280;9688;51.906;8.376;2023-04-28T12:01:13;100158.41;;;19.04;66.43
19112;BME280;9688;51.906;8.376;2023-04-28T12:03:59;100157.16;;;19.19;66.14
19112;BME280;9688;51.906;8.376;2023-04-28T12:06:45;100156.09;;;19.43;65.38
19112;BME280;9688;51.906;8.376;2023-04-28T12:09:32;100140.06;;;19.64;64.86
19112;BME280;9688;51.906;8.376;2023-04-28T12:12:27;100135.66;;;19.74;64.88
19112;BME280;9688;51.906;8.376;2023-04-28T12:15:13;100136.06;;;19.90;64.11
19112;BME280;9688;51.906;8.376;2023-04-28T12:18:09;100131.09;;;19.86;64.11
19112;BME280;9688;51.906;8.376;2023-04-28T12:20:55;100134.28;;;19.79;64.53
19112;BME280;9688;51.906;8.376;2023-04-28T12:23:41;100133.50;;;19.89;64.18
19112;BME280;9688;51.906;8.376;2023-04-28T12:26:26;100138.59;;;19.92;64.02
19112;BME280;9688;51.906;8.376;2023-04-28T12:29:34;100135.72;;;19.83;64.09
19112;BME280;9688;51.906;8.376;2023-04-28T12:32:36;100134.09;;;19.71;64.27
19112;BME280;9688;51.906;8.376;2023-04-28T12:35:25;100129.84;;;19.57;64.60
19112;BME280;9688;51.906;8.376;2023-04-28T12:38:13;100128.50;;;19.63;64.92
19112;BME280;9688;51.906;8.376;2023-04-28T12:40:59;100126.25;;;19.79;64.12
19112;BME280;9688;51.906;8.376;2023-04-28T12:43:45;100121.13;;;19.97;63.81
19112;BME280;9688;51.906;8.376;2023-04-28T12:46:30;100128.53;;;20.05;63.52
19112;BME280;9688;51.906;8.376;2023-04-28T12:49:17;100125.47;;;20.10;63.33
19112;BME280;9688;51.906;8.376;2023-04-28T12:52:05;100131.22;;;20.05;63.70
19112;BME280;9688;51.906;8.376;2023-04-28T12:54:52;100132.19;;;19.83;64.30
19112;BME280;9688;51.906;8.376;2023-04-28T12:57:39;100132.25;;;19.72;64.98
19112;BME280;9688;51.906;8.376;2023-04-28T13:00:25;100132.19;;;19.51;65.34
19112;BME280;9688;51.906;8.376;2023-04-28T13:03:11;100135.78;;;19.40;65.93
19112;BME280;9688;51.906;8.376;2023-04-28T13:05:56;100129.28;;;19.43;65.87
19112;BME280;9688;51.906;8.376;2023-04-28T13:08:43;100130.03;;;19.45;65.78
19112;BME280;9688;51.906;8.376;2023-04-28T13:11:29;100130.66;;;19.37;66.26
19112;BME280;9688;51.906;8.376;2023-04-28T13:14:15;100137.31;;;19.22;66.60
19112;BME280;9688;51.906;8.376;2023-04-28T13:17:01;100128.78;;;19.16;66.72
19112;BME280;9688;51.906;8.376;2023-04-28T13:19:47;100120.50;;;19.20;67.05
19112;BME280;9688;51.906;8.376;2023-04-28T13:22:32;100122.69;;;19.14;67.47
19112;BME280;9688;51.906;8.376;2023-04-28T13:25:19;100116.78;;;19.00;67.53
19112;BME280;9688;51.906;8.376;2023-04-28T13:28:06;100125.19;;;18.84;68.34
19112;BME280;9688;51.906;8.376;2023-04-28T13:30:54;100116.41;;;18.70;68.72
19112;BME280;9688;51.906;8.376;2023-04-28T13:33:39;100119.25;;;18.58;69.14
19112;BME280;9688;51.906;8.376;2023-04-28T13:36:25;100118.00;;;18.50;69.46
19112;BME280;9688;51.906;8.376;2023-04-28T13:39:12;100115.09;;;18.42;69.61
19112;BME280;9688;51.906;8.376;2023-04-28T13:42:00;100108.78;;;18.32;70.37
19112;BME280;9688;51.906;8.376;2023-04-28T13:44:46;100113.50;;;18.28;70.47
19112;BME280;9688;51.906;8.376;2023-04-28T13:47:32;100117.06;;;18.29;71.04
19112;BME280;9688;51.906;8.376;2023-04-28T13:50:18;100114.97;;;18.21;71.25
19112;BME280;9688;51.906;8.376;2023-04-28T13:53:04;100123.25;;;18.07;71.67
19112;BME280;9688;51.906;8.376;2023-04-28T13:55:49;100115.06;;;17.97;72.00
19112;BME280;9688;51.906;8.376;2023-04-28T13:58:38;100118.97;;;17.93;73.06
19112;BME280;9688;51.906;8.376;2023-04-28T14:01:24;100118.47;;;17.88;73.56
19112;BME280;9688;51.906;8.376;2023-04-28T14:04:10;100124.75;;;17.87;73.64
19112;BME280;9688;51.906;8.376;2023-04-28T14:06:58;100120.63;;;17.83;74.18
19112;BME280;9688;51.906;8.376;2023-04-28T14:09:44;100113.75;;;17.68;74.90
19112;BME280;9688;51.906;8.376;2023-04-28T14:12:30;100117.00;;;17.60;76.09
19112;BME280;9688;51.906;8.376;2023-04-28T14:15:18;100115.25;;;17.48;77.05
19112;BME280;9688;51.906;8.376;2023-04-28T14:18:05;100117.19;;;17.46;77.41
19112;BME280;9688;51.906;8.376;2023-04-28T14:20:52;100109.31;;;17.44;78.33
19112;BME280;9688;51.906;8.376;2023-04-28T14:23:38;100117.50;;;17.30;79.15
19112;BME280;9688;51.906;8.376;2023-04-28T14:26:24;100109.44;;;17.19;79.85
19112;BME280;9688;51.906;8.376;2023-04-28T14:29:10;100111.22;;;17.18;80.90
19112;BME280;9688;51.906;8.376;2023-04-28T14:31:57;100106.13;;;17.15;81.66
19112;BME280;9688;51.906;8.376;2023-04-28T14:34:44;100096.50;;;17.12;82.40
19112;BME280;9688;51.906;8.376;2023-04-28T14:37:31;100105.28;;;17.14;82.53
19112;BME280;9688;51.906;8.376;2023-04-28T14:40:17;100098.09;;;17.15;82.95
19112;BME280;9688;51.906;8.376;2023-04-28T14:43:03;100092.91;;;17.13;83.93
19112;BME280;9688;51.906;8.376;2023-04-28T14:45:50;100097.03;;;17.17;83.60
19112;BME280;9688;51.906;8.376;2023-04-28T14:48:38;100087.97;;;17.31;83.95
19112;BME280;9688;51.906;8.376;2023-04-28T14:51:24;100085.88;;;17.59;83.51